sensor_id;sensor_type;location;lat;lon;timestamp;pressure;altitude;pressure_sealevel;temperature;humidity
49397;BME280;35615;41.410;2.194;2022-10-24T00:01:54;101482.22;;;25.83;58.44
49397;BME280;35615;41.410;2.194;2022-10-24T00:04:21;101480.47;;;25.84;58.40
49397;BME280;35615;41.410;2.194;2022-10-24T00:06:49;101482.28;;;25.78;58.17
49397;BME280;35615;41.410;2.194;2022-10-24T00:09:24;101484.88;;;25.83;58.50
49397;BME280;35615;41.410;2.194;2022-10-24T00:11:53;101489.38;;;25.76;59.03
49397;BME280;35615;41.410;2.194;2022-10-24T00:14:21;101484.03;;;25.80;58.47
49397;BME280;35615;41.410;2.194;2022-10-24T00:16:54;101473.47;;;25.76;58.76
49397;BME280;35615;41.410;2.194;2022-10-24T00:19:25;101470.84;;;25.76;58.42
49397;BME280;35615;41.410;2.194;2022-10-24T00:21:53;101468.25;;;25.72;59.01
49397;BME280;35615;41.410;2.194;2022-10-24T00:24:21;101460.34;;;25.67;59.02
49397;BME280;35615;41.410;2.194;2022-10-24T00:26:51;101463.84;;;25.69;58.75
49397;BME280;35615;41.410;2.194;2022-10-24T00:29:23;101464.78;;;25.65;59.24
49397;BME280;35615;41.410;2.194;2022-10-24T00:31:51;101470.13;;;25.62;59.27
49397;BME280;35615;41.410;2.194;2022-10-24T00:34:20;101469.38;;;25.51;59.93
49397;BME280;35615;41.410;2.194;2022-10-24T00:36:47;101471.03;;;25.58;59.65
49397;BME280;35615;41.410;2.194;2022-10-24T00:39:16;101467.66;;;25.45;59.91
49397;BME280;35615;41.410;2.194;2022-10-24T00:41:44;101465.78;;;25.55;59.75
49397;BME280;35615;41.410;2.194;2022-10-24T00:44:17;101466.88;;;25.39;60.26
49397;BME280;35615;41.410;2.194;2022-10-24T00:49:21;101467.88;;;25.29;60.51
49397;BME280;35615;41.410;2.194;2022-10-24T00:51:57;101476.63;;;25.32;60.44
49397;BME280;35615;41.410;2.194;2022-10-24T00:54:28;101474.00;;;25.32;60.25
49397;BME280;35615;41.410;2.194;2022-10-24T00:57:03;101472.19;;;25.36;59.79
49397;BME280;35615;41.410;2.194;2022-10-24T00:59:34;101479.31;;;25.31;60.45
49397;BME280;35615;41.410;2.194;2022-10-24T01:02:02;101473.13;;;25.30;60.43
49397;BME280;35615;41.410;2.194;2022-10-24T01:04:30;101473.16;;;25.29;60.35
49397;BME280;35615;41.410;2.194;2022-10-24T01:07:16;101474.13;;;25.20;61.00
49397;BME280;35615;41.410;2.194;2022-10-24T01:12:46;101475.81;;;25.26;60.44
49397;BME280;35615;41.410;2.194;2022-10-24T01:15:48;101483.78;;;25.23;60.56
49397;BME280;35615;41.410;2.194;2022-10-24T01:18:22;101491.75;;;25.19;60.78
49397;BME280;35615;41.410;2.194;2022-10-24T01:21:19;101492.63;;;25.22;60.33
49397;BME280;35615;41.410;2.194;2022-10-24T01:35:50;101479.56;;;25.03;61.32
49397;BME280;35615;41.410;2.194;2022-10-24T01:40:59;101476.91;;;25.08;60.55
49397;BME280;35615;41.410;2.194;2022-10-24T01:43:39;101480.41;;;25.08;60.52
49397;BME280;35615;41.410;2.194;2022-10-24T01:46:17;101480.53;;;24.91;61.70
49397;BME280;35615;41.410;2.194;2022-10-24T01:48:52;101476.13;;;24.95;61.32
49397;BME280;35615;41.410;2.194;2022-10-24T01:51:24;101472.53;;;25.02;60.73
49397;BME280;35615;41.410;2.194;2022-10-24T01:53:54;101472.53;;;25.05;61.05
49397;BME280;35615;41.410;2.194;2022-10-24T01:56:24;101469.88;;;25.04;60.98
49397;BME280;35615;41.410;2.194;2022-10-24T01:59:03;101469.91;;;24.98;60.86
49397;BME280;35615;41.410;2.194;2022-10-24T02:02:09;101465.50;;;25.00;60.82
49397;BME280;35615;41.410;2.194;2022-10-24T02:04:48;101469.97;;;24.95;61.11
49397;BME280;35615;41.410;2.194;2022-10-24T02:07:18;101466.38;;;24.99;60.74
49397;BME280;35615;41.410;2.194;2022-10-24T02:09:50;101470.81;;;24.93;60.94
49397;BME280;35615;41.410;2.194;2022-10-24T02:12:21;101474.41;;;24.88;60.77
49397;BME280;35615;41.410;2.194;2022-10-24T02:14:54;101463.81;;;24.89;60.59
49397;BME280;35615;41.410;2.194;2022-10-24T02:17:23;101458.56;;;24.88;60.95
49397;BME280;35615;41.410;2.194;2022-10-24T02:19:50;101454.16;;;24.88;60.68
49397;BME280;35615;41.410;2.194;2022-10-24T02:24:56;101453.31;;;24.82;60.28
49397;BME280;35615;41.410;2.194;2022-10-24T02:27:48;101455.06;;;24.86;60.09
49397;BME280;35615;41.410;2.194;2022-10-24T02:30:24;101459.50;;;24.79;60.11
49397;BME280;35615;41.410;2.194;2022-10-24T02:32:55;101463.91;;;24.83;59.84
49397;BME280;35615;41.410;2.194;2022-10-24T02:35:31;101461.28;;;24.79;59.84
49397;BME280;35615;41.410;2.194;2022-10-24T02:38:06;101456.84;;;24.84;59.48
49397;BME280;35615;41.410;2.194;2022-10-24T02:40:35;101459.84;;;24.41;60.52
49397;BME280;35615;41.410;2.194;2022-10-24T02:43:08;101455.31;;;24.55;59.69
49397;BME280;35615;41.410;2.194;2022-10-24T02:45:37;101454.31;;;24.69;59.60
49397;BME280;35615;41.410;2.194;2022-10-24T02:48:09;101456.13;;;24.65;59.79
49397;BME280;35615;41.410;2.194;2022-10-24T02:50:41;101458.78;;;24.63;59.57
49397;BME280;35615;41.410;2.194;2022-10-24T02:53:12;101459.63;;;24.66;59.90
49397;BME280;35615;41.410;2.194;2022-10-24T02:55:41;101464.88;;;24.70;59.96
49397;BME280;35615;41.410;2.194;2022-10-24T02:58:08;101453.44;;;24.73;60.01
49397;BME280;35615;41.410;2.194;2022-10-24T03:00:36;101440.19;;;24.71;59.79
49397;BME280;35615;41.410;2.194;2022-10-24T03:03:03;101442.88;;;24.68;59.52
49397;BME280;35615;41.410;2.194;2022-10-24T03:05:31;101434.09;;;24.66;59.77
49397;BME280;35615;41.410;2.194;2022-10-24T03:08:01;101426.19;;;24.65;59.69
49397;BME280;35615;41.410;2.194;2022-10-24T03:10:28;101433.16;;;24.73;59.27
49397;BME280;35615;41.410;2.194;2022-10-24T03:12:56;101431.38;;;24.74;59.33
49397;BME280;35615;41.410;2.194;2022-10-24T03:15:23;101434.94;;;24.73;59.51
49397;BME280;35615;41.410;2.194;2022-10-24T03:17:51;101431.44;;;24.66;59.41
49397;BME280;35615;41.410;2.194;2022-10-24T03:20:19;101444.63;;;24.69;59.13
49397;BME280;35615;41.410;2.194;2022-10-24T03:22:46;101442.94;;;24.63;59.14
49397;BME280;35615;41.410;2.194;2022-10-24T03:25:14;101446.47;;;24.59;58.80
49397;BME280;35615;41.410;2.194;2022-10-24T03:27:46;101446.47;;;24.59;58.27
49397;BME280;35615;41.410;2.194;2022-10-24T03:30:14;101448.22;;;24.63;58.30
49397;BME280;35615;41.410;2.194;2022-10-24T03:32:42;101451.78;;;24.56;57.92
49397;BME280;35615;41.410;2.194;2022-10-24T03:35:10;101444.81;;;24.51;57.93
49397;BME280;35615;41.410;2.194;2022-10-24T03:37:46;101449.22;;;24.46;57.69
49397;BME280;35615;41.410;2.194;2022-10-24T03:40:13;101442.19;;;24.46;57.18
49397;BME280;35615;41.410;2.194;2022-10-24T03:42:47;101446.63;;;24.43;57.40
49397;BME280;35615;41.410;2.194;2022-10-24T03:45:18;101450.09;;;24.48;56.76
49397;BME280;35615;41.410;2.194;2022-10-24T03:47:45;101445.69;;;24.47;56.76
49397;BME280;35615;41.410;2.194;2022-10-24T03:50:13;101444.94;;;24.29;57.56
49397;BME280;35615;41.410;2.194;2022-10-24T03:52:41;101447.53;;;24.36;56.93
49397;BME280;35615;41.410;2.194;2022-10-24T03:55:11;101459.91;;;24.24;57.57
49397;BME280;35615;41.410;2.194;2022-10-24T03:57:39;101465.19;;;24.29;57.23
49397;BME280;35615;41.410;2.194;2022-10-24T04:00:08;101463.41;;;24.29;57.34
49397;BME280;35615;41.410;2.194;2022-10-24T04:02:36;101474.00;;;24.29;57.04
49397;BME280;35615;41.410;2.194;2022-10-24T04:05:09;101490.66;;;24.38;57.16
49397;BME280;35615;41.410;2.194;2022-10-24T04:07:37;101488.13;;;24.21;55.40
49397;BME280;35615;41.410;2.194;2022-10-24T04:10:05;101485.59;;;23.99;51.55
49397;BME280;35615;41.410;2.194;2022-10-24T04:12:33;101482.84;;;24.19;51.04
49397;BME280;35615;41.410;2.194;2022-10-24T04:15:00;101477.56;;;24.16;50.07
49397;BME280;35615;41.410;2.194;2022-10-24T04:17:31;101462.47;;;24.44;49.53
49397;BME280;35615;41.410;2.194;2022-10-24T04:19:59;101441.38;;;24.37;49.21
49397;BME280;35615;41.410;2.194;2022-10-24T04:22:27;101424.47;;;24.57;50.04
49397;BME280;35615;41.410;2.194;2022-10-24T04:24:55;101434.00;;;24.75;49.77
49397;BME280;35615;41.410;2.194;2022-10-24T04:27:23;101460.34;;;24.84;50.32
49397;BME280;35615;41.410;2.194;2022-10-24T04:29:51;101493.81;;;24.87;49.37
49397;BME280;35615;41.410;2.194;2022-10-24T04:32:19;101489.56;;;24.68;49.76
49397;BME280;35615;41.410;2.194;2022-10-24T04:34:47;101488.59;;;24.78;49.56
49397;BME280;35615;41.410;2.194;2022-10-24T04:37:15;101473.84;;;24.49;49.54
49397;BME280;35615;41.410;2.194;2022-10-24T04:39:43;101483.34;;;24.72;50.22
49397;BME280;35615;41.410;2.194;2022-10-24T04:42:10;101485.38;;;24.41;50.08
49397;BME280;35615;41.410;2.194;2022-10-24T04:44:38;101481.63;;;24.69;50.46
49397;BME280;35615;41.410;2.194;2022-10-24T04:47:06;101476.38;;;24.66;49.81
49397;BME280;35615;41.410;2.194;2022-10-24T04:49:34;101495.78;;;24.60;49.79
49397;BME280;35615;41.410;2.194;2022-10-24T04:52:02;101495.69;;;24.73;48.98
49397;BME280;35615;41.410;2.194;2022-10-24T04:54:30;101498.34;;;24.70;48.34
49397;BME280;35615;41.410;2.194;2022-10-24T04:56:58;101493.91;;;24.76;48.83
49397;BME280;35615;41.410;2.194;2022-10-24T04:59:26;101493.91;;;24.75;48.79
49397;BME280;35615;41.410;2.194;2022-10-24T05:01:53;101493.94;;;24.73;48.00
49397;BME280;35615;41.410;2.194;2022-10-24T05:04:21;101469.97;;;24.90;48.36
49397;BME280;35615;41.410;2.194;2022-10-24T05:06:49;101475.34;;;24.81;48.03
49397;BME280;35615;41.410;2.194;2022-10-24T05:09:17;101492.16;;;24.75;48.47
49397;BME280;35615;41.410;2.194;2022-10-24T05:11:45;101486.75;;;24.87;47.89
49397;BME280;35615;41.410;2.194;2022-10-24T05:14:12;101472.59;;;24.93;47.00
49397;BME280;35615;41.410;2.194;2022-10-24T05:16:40;101472.53;;;25.01;46.58
49397;BME280;35615;41.410;2.194;2022-10-24T05:19:07;101481.31;;;25.04;46.98
49397;BME280;35615;41.410;2.194;2022-10-24T05:21:35;101477.88;;;24.93;45.89
49397;BME280;35615;41.410;2.194;2022-10-24T05:24:02;101477.00;;;24.96;46.28
49397;BME280;35615;41.410;2.194;2022-10-24T05:26:30;101487.47;;;25.08;47.40
49397;BME280;35615;41.410;2.194;2022-10-24T05:28:58;101481.28;;;25.09;48.10
49397;BME280;35615;41.410;2.194;2022-10-24T05:31:29;101483.94;;;25.09;50.51
49397;BME280;35615;41.410;2.194;2022-10-24T05:34:02;101487.47;;;25.08;49.85
49397;BME280;35615;41.410;2.194;2022-10-24T05:36:29;101486.59;;;25.04;51.77
49397;BME280;35615;41.410;2.194;2022-10-24T05:38:57;101485.75;;;25.02;51.83
49397;BME280;35615;41.410;2.194;2022-10-24T05:41:25;101491.84;;;25.10;52.01
49397;BME280;35615;41.410;2.194;2022-10-24T05:43:53;101490.09;;;25.09;51.89
49397;BME280;35615;41.410;2.194;2022-10-24T05:46:21;101498.03;;;25.09;51.54
49397;BME280;35615;41.410;2.194;2022-10-24T05:48:48;101498.88;;;25.11;51.04
49397;BME280;35615;41.410;2.194;2022-10-24T05:51:16;101507.75;;;25.09;51.32
49397;BME280;35615;41.410;2.194;2022-10-24T05:53:44;101508.63;;;25.08;51.36
49397;BME280;35615;41.410;2.194;2022-10-24T05:56:12;101512.16;;;25.08;51.36
49397;BME280;35615;41.410;2.194;2022-10-24T05:58:40;101508.56;;;25.14;51.32
49397;BME280;35615;41.410;2.194;2022-10-24T06:01:08;101505.06;;;25.12;51.62
49397;BME280;35615;41.410;2.194;2022-10-24T06:03:36;101495.34;;;25.12;51.30
49397;BME280;35615;41.410;2.194;2022-10-24T06:06:07;101504.16;;;25.13;51.82
49397;BME280;35615;41.410;2.194;2022-10-24T06:08:42;101511.19;;;25.14;51.88
49397;BME280;35615;41.410;2.194;2022-10-24T06:11:13;101510.31;;;25.15;51.78
49397;BME280;35615;41.410;2.194;2022-10-24T06:13:44;101513.00;;;25.12;51.86
49397;BME280;35615;41.410;2.194;2022-10-24T06:16:13;101509.44;;;25.13;51.99
49397;BME280;35615;41.410;2.194;2022-10-24T06:18:41;101501.59;;;25.01;52.20
49397;BME280;35615;41.410;2.194;2022-10-24T06:21:10;101498.97;;;25.01;52.13
49397;BME280;35615;41.410;2.194;2022-10-24T06:23:42;101491.97;;;24.97;52.14
49397;BME280;35615;41.410;2.194;2022-10-24T06:26:11;101493.69;;;24.99;51.70
49397;BME280;35615;41.410;2.194;2022-10-24T06:28:43;101504.53;;;24.67;51.26
49397;BME280;35615;41.410;2.194;2022-10-24T06:31:11;101509.66;;;24.88;51.22
49397;BME280;35615;41.410;2.194;2022-10-24T06:33:40;101502.56;;;24.90;50.77
49397;BME280;35615;41.410;2.194;2022-10-24T06:36:10;101504.31;;;24.91;51.17
49397;BME280;35615;41.410;2.194;2022-10-24T06:38:41;101506.06;;;24.97;50.94
49397;BME280;35615;41.410;2.194;2022-10-24T06:41:12;101512.28;;;24.90;50.33
49397;BME280;35615;41.410;2.194;2022-10-24T06:43:40;101516.63;;;24.97;50.88
49397;BME280;35615;41.410;2.194;2022-10-24T06:46:11;101512.19;;;25.02;50.77
49397;BME280;35615;41.410;2.194;2022-10-24T06:48:43;101518.38;;;25.01;50.46
49397;BME280;35615;41.410;2.194;2022-10-24T06:51:14;101521.91;;;24.97;50.48
49397;BME280;35615;41.410;2.194;2022-10-24T06:53:51;101535.97;;;25.04;50.43
49397;BME280;35615;41.410;2.194;2022-10-24T06:56:19;101533.25;;;25.13;50.20
49397;BME280;35615;41.410;2.194;2022-10-24T06:58:48;101539.38;;;25.15;49.84
49397;BME280;35615;41.410;2.194;2022-10-24T07:01:21;101537.63;;;25.14;49.83
49397;BME280;35615;41.410;2.194;2022-10-24T07:03:50;101539.38;;;25.18;49.77
49397;BME280;35615;41.410;2.194;2022-10-24T07:06:24;101541.13;;;25.20;49.23
49397;BME280;35615;41.410;2.194;2022-10-24T07:08:54;101536.66;;;25.24;49.43
49397;BME280;35615;41.410;2.194;2022-10-24T07:11:23;101541.09;;;25.22;49.45
49397;BME280;35615;41.410;2.194;2022-10-24T07:13:54;101546.38;;;25.24;49.88
49397;BME280;35615;41.410;2.194;2022-10-24T07:16:28;101551.63;;;25.30;49.47
49397;BME280;35615;41.410;2.194;2022-10-24T07:18:56;101555.09;;;25.33;49.45
49397;BME280;35615;41.410;2.194;2022-10-24T07:21:26;101561.22;;;25.37;49.33
49397;BME280;35615;41.410;2.194;2022-10-24T07:23:55;101563.91;;;25.34;49.53
49397;BME280;35615;41.410;2.194;2022-10-24T07:26:26;101570.06;;;25.34;49.33
49397;BME280;35615;41.410;2.194;2022-10-24T07:28:56;101568.22;;;25.42;48.96
49397;BME280;35615;41.410;2.194;2022-10-24T07:31:31;101571.78;;;25.41;48.13
49397;BME280;35615;41.410;2.194;2022-10-24T07:34:04;101576.91;;;25.55;47.60
49397;BME280;35615;41.410;2.194;2022-10-24T07:36:32;101583.00;;;25.63;47.70
49397;BME280;35615;41.410;2.194;2022-10-24T07:39:00;101584.69;;;25.73;47.16
49397;BME280;35615;41.410;2.194;2022-10-24T07:41:29;101591.69;;;25.77;46.86
49397;BME280;35615;41.410;2.194;2022-10-24T07:43:59;101594.31;;;25.81;45.01
49397;BME280;35615;41.410;2.194;2022-10-24T07:46:31;101591.66;;;25.84;44.79
49397;BME280;35615;41.410;2.194;2022-10-24T07:49:13;101589.84;;;25.86;43.43
49397;BME280;35615;41.410;2.194;2022-10-24T07:51:44;101581.03;;;25.85;42.02
49397;BME280;35615;41.410;2.194;2022-10-24T07:54:12;101591.44;;;26.00;42.77
49397;BME280;35615;41.410;2.194;2022-10-24T07:56:42;101597.66;;;25.96;43.25
49397;BME280;35615;41.410;2.194;2022-10-24T07:59:10;101600.22;;;26.05;43.33
49397;BME280;35615;41.410;2.194;2022-10-24T08:02:00;101608.03;;;26.16;46.59
49397;BME280;35615;41.410;2.194;2022-10-24T08:04:28;101610.41;;;26.34;48.56
49397;BME280;35615;41.410;2.194;2022-10-24T08:06:56;101620.91;;;26.44;48.65
49397;BME280;35615;41.410;2.194;2022-10-24T08:09:24;101609.25;;;26.57;48.98
49397;BME280;35615;41.410;2.194;2022-10-24T08:11:53;101611.59;;;26.78;49.28
49397;BME280;35615;41.410;2.194;2022-10-24T08:14:22;101610.75;;;26.75;49.21
49397;BME280;35615;41.410;2.194;2022-10-24T08:16:52;101611.78;;;26.64;50.09
49397;BME280;35615;41.410;2.194;2022-10-24T08:19:24;101607.06;;;26.85;50.08
49397;BME280;35615;41.410;2.194;2022-10-24T08:21:54;101607.78;;;27.48;48.53
49397;BME280;35615;41.410;2.194;2022-10-24T08:24:22;101610.00;;;27.74;47.95
49397;BME280;35615;41.410;2.194;2022-10-24T08:26:50;101610.25;;;28.05;47.18
49397;BME280;35615;41.410;2.194;2022-10-24T08:29:19;101616.91;;;28.25;46.58
49397;BME280;35615;41.410;2.194;2022-10-24T08:31:51;101610.34;;;28.44;45.65
49397;BME280;35615;41.410;2.194;2022-10-24T08:34:24;101619.09;;;28.48;44.63
49397;BME280;35615;41.410;2.194;2022-10-24T08:36:53;101616.88;;;28.26;44.75
49397;BME280;35615;41.410;2.194;2022-10-24T08:39:21;101622.44;;;28.57;44.52
49397;BME280;35615;41.410;2.194;2022-10-24T08:41:57;101617.34;;;28.47;43.50
49397;BME280;35615;41.410;2.194;2022-10-24T08:44:36;101623.28;;;28.18;43.95
49397;BME280;35615;41.410;2.194;2022-10-24T08:50:00;101621.09;;;28.40;44.87
49397;BME280;35615;41.410;2.194;2022-10-24T08:52:43;101623.09;;;28.25;45.20
49397;BME280;35615;41.410;2.194;2022-10-24T08:55:22;101624.72;;;28.34;45.73
49397;BME280;35615;41.410;2.194;2022-10-24T08:58:16;101621.09;;;28.40;45.49
49397;BME280;35615;41.410;2.194;2022-10-24T09:00:50;101619.38;;;28.35;45.88
49397;BME280;35615;41.410;2.194;2022-10-24T09:03:40;101631.59;;;28.44;45.29
49397;BME280;35615;41.410;2.194;2022-10-24T09:06:29;101642.13;;;28.49;45.40
49397;BME280;35615;41.410;2.194;2022-10-24T09:09:11;101645.38;;;28.20;45.86
49397;BME280;35615;41.410;2.194;2022-10-24T09:12:05;101642.69;;;28.21;46.01
49397;BME280;35615;41.410;2.194;2022-10-24T09:14:39;101649.78;;;28.64;44.92
49397;BME280;35615;41.410;2.194;2022-10-24T09:17:16;101650.59;;;28.24;43.34
49397;BME280;35615;41.410;2.194;2022-10-24T09:23:01;101656.31;;;28.49;39.48
49397;BME280;35615;41.410;2.194;2022-10-24T09:25:34;101653.81;;;28.80;38.59
49397;BME280;35615;41.410;2.194;2022-10-24T09:28:16;101663.59;;;28.80;38.32
49397;BME280;35615;41.410;2.194;2022-10-24T09:30:48;101650.03;;;28.93;36.84
49397;BME280;35615;41.410;2.194;2022-10-24T09:33:38;101637.59;;;28.94;34.61
49397;BME280;35615;41.410;2.194;2022-10-24T09:36:28;101640.56;;;29.17;35.27
49397;BME280;35615;41.410;2.194;2022-10-24T09:39:36;101633.34;;;29.21;34.35
49397;BME280;35615;41.410;2.194;2022-10-24T09:42:15;101646.03;;;29.11;34.03
49397;BME280;35615;41.410;2.194;2022-10-24T09:44:59;101638.69;;;29.21;34.22
49397;BME280;35615;41.410;2.194;2022-10-24T09:47:30;101641.72;;;29.41;35.27
49397;BME280;35615;41.410;2.194;2022-10-24T09:50:05;101644.69;;;29.29;34.25
49397;BME280;35615;41.410;2.194;2022-10-24T09:52:39;101638.63;;;28.85;33.42
49397;BME280;35615;41.410;2.194;2022-10-24T09:55:21;101643.13;;;29.20;33.34
49397;BME280;35615;41.410;2.194;2022-10-24T09:57:54;101643.19;;;29.19;33.35
49397;BME280;35615;41.410;2.194;2022-10-24T10:00:31;101635.53;;;29.75;33.67
49397;BME280;35615;41.410;2.194;2022-10-24T10:03:09;101636.09;;;29.86;33.25
49397;BME280;35615;41.410;2.194;2022-10-24T10:05:57;101636.00;;;29.89;32.66
49397;BME280;35615;41.410;2.194;2022-10-24T10:08:35;101636.09;;;30.19;32.45
49397;BME280;35615;41.410;2.194;2022-10-24T10:11:05;101628.81;;;30.53;32.49
49397;BME280;35615;41.410;2.194;2022-10-24T10:13:44;101631.81;;;30.72;30.75
49397;BME280;35615;41.410;2.194;2022-10-24T10:16:27;101624.19;;;31.14;30.79
49397;BME280;35615;41.410;2.194;2022-10-24T10:19:12;101620.94;;;31.33;30.74
49397;BME280;35615;41.410;2.194;2022-10-24T10:21:59;101628.47;;;31.46;29.32
49397;BME280;35615;41.410;2.194;2022-10-24T10:24:49;101632.06;;;31.70;29.64
49397;BME280;35615;41.410;2.194;2022-10-24T10:27:37;101622.34;;;31.68;29.47
49397;BME280;35615;41.410;2.194;2022-10-24T10:33:29;101618.22;;;32.32;28.94
49397;BME280;35615;41.410;2.194;2022-10-24T10:36:20;101615.41;;;31.89;28.44
49397;BME280;35615;41.410;2.194;2022-10-24T10:39:17;101599.28;;;32.39;28.03
49397;BME280;35615;41.410;2.194;2022-10-24T10:42:07;101606.38;;;32.61;28.66
49397;BME280;35615;41.410;2.194;2022-10-24T10:49:56;101596.69;;;32.12;28.99
49397;BME280;35615;41.410;2.194;2022-10-24T10:52:31;101600.31;;;32.34;28.68
49397;BME280;35615;41.410;2.194;2022-10-24T10:55:08;101599.16;;;33.07;27.87
49397;BME280;35615;41.410;2.194;2022-10-24T10:58:01;101598.50;;;33.22;27.83
49397;BME280;35615;41.410;2.194;2022-10-24T11:04:35;101587.31;;;33.33;27.33
49397;BME280;35615;41.410;2.194;2022-10-24T11:07:12;101585.91;;;33.86;27.28
49397;BME280;35615;41.410;2.194;2022-10-24T11:09:49;101573.53;;;33.63;27.77
49397;BME280;35615;41.410;2.194;2022-10-24T11:17:46;101566.09;;;34.08;27.94
49397;BME280;35615;41.410;2.194;2022-10-24T11:22:59;101563.53;;;33.66;27.93
49397;BME280;35615;41.410;2.194;2022-10-24T11:30:46;101541.94;;;33.30;29.26
49397;BME280;35615;41.410;2.194;2022-10-24T11:33:26;101539.72;;;33.79;28.59
49397;BME280;35615;41.410;2.194;2022-10-24T11:39:11;101542.13;;;34.05;28.44
49397;BME280;35615;41.410;2.194;2022-10-24T11:42:11;101537.25;;;33.95;28.40
49397;BME280;35615;41.410;2.194;2022-10-24T11:44:52;101541.69;;;33.75;28.87
49397;BME280;35615;41.410;2.194;2022-10-24T11:51:06;101531.75;;;33.77;29.20
49397;BME280;35615;41.410;2.194;2022-10-24T11:56:13;101528.81;;;34.02;28.80
49397;BME280;35615;41.410;2.194;2022-10-24T11:59:03;101522.28;;;34.46;28.57
49397;BME280;35615;41.410;2.194;2022-10-24T12:02:02;101528.19;;;34.71;29.50
49397;BME280;35615;41.410;2.194;2022-10-24T12:14:20;101497.84;;;34.69;29.61
49397;BME280;35615;41.410;2.194;2022-10-24T12:17:23;101497.94;;;34.31;29.94
49397;BME280;35615;41.410;2.194;2022-10-24T12:19:56;101494.31;;;35.20;30.39
49397;BME280;35615;41.410;2.194;2022-10-24T12:22:42;101485.47;;;35.18;30.02
49397;BME280;35615;41.410;2.194;2022-10-24T12:25:28;101481.44;;;35.27;29.54
49397;BME280;35615;41.410;2.194;2022-10-24T12:28:22;101477.91;;;35.75;28.48
49397;BME280;35615;41.410;2.194;2022-10-24T12:31:30;101477.25;;;36.03;29.42
49397;BME280;35615;41.410;2.194;2022-10-24T12:39:49;101471.56;;;35.76;29.79
49397;BME280;35615;41.410;2.194;2022-10-24T12:53:18;101462.50;;;33.49;35.87
49397;BME280;35615;41.410;2.194;2022-10-24T12:56:06;101451.75;;;34.25;35.09
49397;BME280;35615;41.410;2.194;2022-10-24T12:58:41;101452.44;;;34.11;35.73
49397;BME280;35615;41.410;2.194;2022-10-24T13:04:28;101448.00;;;33.35;36.62
49397;BME280;35615;41.410;2.194;2022-10-24T13:11:30;101451.03;;;33.07;38.31
49397;BME280;35615;41.410;2.194;2022-10-24T13:17:12;101447.19;;;32.72;39.21
49397;BME280;35615;41.410;2.194;2022-10-24T13:23:01;101437.38;;;33.52;38.83
49397;BME280;35615;41.410;2.194;2022-10-24T13:25:46;101446.00;;;33.40;39.54
49397;BME280;35615;41.410;2.194;2022-10-24T13:28:37;101442.28;;;32.81;40.07
49397;BME280;35615;41.410;2.194;2022-10-24T13:33:51;101436.34;;;32.75;40.22
49397;BME280;35615;41.410;2.194;2022-10-24T13:37:52;101431.66;;;33.60;38.66
49397;BME280;35615;41.410;2.194;2022-10-24T13:40:19;101432.97;;;33.51;37.85
49397;BME280;35615;41.410;2.194;2022-10-24T13:43:12;101434.19;;;33.63;37.68
49397;BME280;35615;41.410;2.194;2022-10-24T13:48:44;101435.13;;;33.80;37.41
49397;BME280;35615;41.410;2.194;2022-10-24T13:51:23;101433.06;;;33.87;37.51
49397;BME280;35615;41.410;2.194;2022-10-24T13:53:56;101421.38;;;33.50;37.51
49397;BME280;35615;41.410;2.194;2022-10-24T13:56:37;101427.59;;;34.07;36.42
49397;BME280;35615;41.410;2.194;2022-10-24T13:59:34;101427.69;;;33.87;36.56
49397;BME280;35615;41.410;2.194;2022-10-24T14:02:20;101428.69;;;34.40;36.29
49397;BME280;35615;41.410;2.194;2022-10-24T14:05:00;101438.59;;;34.01;36.28
49397;BME280;35615;41.410;2.194;2022-10-24T14:07:34;101418.31;;;34.32;35.82
49397;BME280;35615;41.410;2.194;2022-10-24T14:10:14;101421.47;;;33.87;36.54
49397;BME280;35615;41.410;2.194;2022-10-24T14:12:46;101435.97;;;33.81;36.45
49397;BME280;35615;41.410;2.194;2022-10-24T14:15:30;101425.28;;;34.00;36.16
49397;BME280;35615;41.410;2.194;2022-10-24T14:18:02;101431.94;;;34.10;36.19
49397;BME280;35615;41.410;2.194;2022-10-24T14:20:49;101428.56;;;33.88;36.43
49397;BME280;35615;41.410;2.194;2022-10-24T14:23:30;101422.56;;;34.38;35.57
49397;BME280;35615;41.410;2.194;2022-10-24T14:26:27;101428.88;;;34.18;35.34
49397;BME280;35615;41.410;2.194;2022-10-24T14:29:04;101434.91;;;33.66;35.80
49397;BME280;35615;41.410;2.194;2022-10-24T14:32:04;101435.66;;;33.51;35.84
49397;BME280;35615;41.410;2.194;2022-10-24T14:34:46;101429.56;;;33.66;35.60
49397;BME280;35615;41.410;2.194;2022-10-24T14:37:37;101431.13;;;33.12;36.39
49397;BME280;35615;41.410;2.194;2022-10-24T14:40:15;101426.22;;;32.83;37.13
49397;BME280;35615;41.410;2.194;2022-10-24T14:42:49;101436.84;;;33.05;36.70
49397;BME280;35615;41.410;2.194;2022-10-24T14:45:36;101432.75;;;32.76;37.31
49397;BME280;35615;41.410;2.194;2022-10-24T14:48:19;101435.69;;;32.05;38.57
49397;BME280;35615;41.410;2.194;2022-10-24T14:51:05;101437.84;;;31.96;38.27
49397;BME280;35615;41.410;2.194;2022-10-24T14:54:25;101433.81;;;32.07;38.16
49397;BME280;35615;41.410;2.194;2022-10-24T14:57:05;101438.00;;;31.68;38.43
49397;BME280;35615;41.410;2.194;2022-10-24T15:00:26;101452.03;;;31.51;38.77
49397;BME280;35615;41.410;2.194;2022-10-24T15:03:13;101436.41;;;31.64;38.29
49397;BME280;35615;41.410;2.194;2022-10-24T15:05:56;101440.00;;;31.86;38.16
49397;BME280;35615;41.410;2.194;2022-10-24T15:08:38;101440.94;;;31.38;39.01
49397;BME280;35615;41.410;2.194;2022-10-24T15:11:26;101445.28;;;31.41;38.55
49397;BME280;35615;41.410;2.194;2022-10-24T15:14:41;101452.97;;;31.27;39.13
49397;BME280;35615;41.410;2.194;2022-10-24T15:20:16;101448.38;;;31.04;39.32
49397;BME280;35615;41.410;2.194;2022-10-24T15:23:03;101442.91;;;31.08;39.28
49397;BME280;35615;41.410;2.194;2022-10-24T15:25:55;101442.56;;;31.17;38.51